Airfield :
LOGIN :

Register | Disclaimer

   EN    FR    IT 

 










Legend :    VFR   Marginal VFR   IFR   Intensive IFR   Very Intensive IFR
Visi :
Ceiling :
>= 8 km
>= 3000ft
5 to 8 km
1000 to 3000 ft
1500m to 5 km
500 to 1000 ft
800 to 1500m
200 to 500 ft
< 800m
< 200 ft
Symbols :   Thunderstorms  Fog  Heavy snow  Heavy precipitations  Wind > 20 kt
SIGMETs :     Misc.  Thunderstorms  Icing  Turbulence  Mountain Waves  Volcanic Ashes






- Airport Elevation : 252 ft
- IATA code : BDU


ENDU - Bardufoss

CURRENT METAR :
  • 170020Z VRB01KT 9999 FEW050 SCT120 12/10 Q1011 RMK WIND 1100FT 10005KT WIND 2200FT 13009KT

EXPIRED METARs :
  • 162350Z 00000KT 9999 FEW050 SCT100 12/10 Q1011 RMK WIND 1100FT 11005KT WIND 2200FT 13009KT
  • 162320Z 00000KT 9999 FEW050 SCT100 13/11 Q1011 RMK WIND 1100FT 13003KT WIND 2200FT 11008KT
  • 162250Z 00000KT 9999 FEW050 SCT100 12/11 Q1011 RMK WIND 1100FT 13003KT WIND 2200FT 11007KT
  • 162220Z VRB02KT 9999 FEW001 12/11 Q1011 RMK WIND 1100FT VRB03KT WIND 2200FT 12007KT
  • 162150Z VRB03KT 9999 FEW050 12/11 Q1011 RMK WIND 1100FT VRB02KT WIND 2200FT 09006KT
  • 162120Z VRB03KT 9999 FEW050 13/11 Q1010 RMK WIND 1100FT 01004KT WIND 2200FT 09007KT
  • 162050Z VRB02KT 9999 FEW050 14/12 Q1010 RMK WIND 1100FT 36004KT WIND 2200FT 07006KT
  • 162020Z VRB02KT 9999 FEW050 15/13 Q1010 RMK WIND 1100FT 35005KT WIND 2200FT 08006KT
  • 161950Z VRB01KT 9999 FEW050CB 16/13 Q1010 RMK WIND 1100FT 05004KT WIND 2200FT 09005KT

TAF TAF ENDU
Valid from the 17 at 00:00 until the 18 at 00:00 UTC


162300Z 1700/1724 VRB03KT 9999 FEW050
TEMPO 1711/1724 FEW050CB



MET'MAP, your aeronautical weather chart ! - Copyright ORBIFLY December 2007 - Disclaimer

ORBIFLY MET'MAP TEAM :

Programming & Development : Alexandra Zaïnal
Original concept : Baudouin d'Aumeries
Technical & hardware support : Manuel Goepfert
Assistance : Marc-Olivier Méhu




SOURCES & CREDITS :

   NOAA